createdAt,value
2018-05-21T00:00:37.771Z,0
2018-05-21T00:01:47.735Z,0
2018-05-21T00:02:57.207Z,0
2018-05-21T00:04:07.177Z,0
2018-05-21T00:05:16.886Z,0
2018-05-21T00:06:26.596Z,0
2018-05-21T00:07:36.304Z,0
2018-05-21T00:08:45.764Z,0
2018-05-21T00:09:55.726Z,0
2018-05-21T00:11:05.433Z,0
2018-05-21T00:12:14.888Z,0
2018-05-21T00:13:24.851Z,0
2018-05-21T00:14:34.568Z,0
2018-05-21T00:15:44.281Z,0
2018-05-21T00:16:54.442Z,0
2018-05-21T00:18:03.896Z,0
2018-05-21T00:19:13.877Z,0
2018-05-21T00:20:23.594Z,0
2018-05-21T00:21:33.314Z,0
2018-05-21T00:22:43.272Z,0
2018-05-21T00:23:53.241Z,0
2018-05-21T00:25:02.951Z,0
2018-05-21T00:26:13.018Z,0
2018-05-21T00:27:22.984Z,0
2018-05-21T00:28:32.960Z,0
2018-05-21T00:29:42.944Z,0
2018-05-21T00:30:52.653Z,0
2018-05-21T00:32:02.625Z,0
2018-05-21T00:33:12.592Z,0
2018-05-21T00:34:22.307Z,0
2018-05-21T00:35:31.756Z,0
2018-05-21T00:36:41.731Z,0
2018-05-21T00:37:51.725Z,0
2018-05-21T00:39:01.437Z,0
2018-05-21T00:40:10.634Z,0
2018-05-21T00:41:19.826Z,0
2018-05-21T00:42:29.798Z,0
2018-05-21T00:43:39.502Z,0
2018-05-21T00:44:48.708Z,0
2018-05-21T00:45:58.680Z,0
2018-05-21T00:47:08.662Z,0
2018-05-21T00:48:18.367Z,0
2018-05-21T00:49:28.356Z,0
2018-05-21T00:50:38.338Z,0
2018-05-21T00:51:48.063Z,0
2018-05-21T00:52:57.805Z,0
2018-05-21T00:54:07.788Z,0
2018-05-21T00:55:17.240Z,0
2018-05-21T00:56:27.208Z,0
2018-05-21T00:57:36.905Z,0
2018-05-21T00:58:46.624Z,0
2018-05-21T00:59:56.606Z,0
2018-05-21T01:01:06.315Z,0
2018-05-21T01:02:16.360Z,0
2018-05-21T01:03:26.063Z,0
2018-05-21T01:04:36.037Z,0
2018-05-21T01:05:46.004Z,0
2018-05-21T01:06:55.717Z,0
2018-05-21T01:08:05.176Z,0
2018-05-21T01:09:14.367Z,0
2018-05-21T01:10:24.339Z,0
2018-05-21T01:11:34.049Z,0
2018-05-21T01:12:43.778Z,0
2018-05-21T01:13:53.760Z,0
2018-05-21T01:15:03.735Z,0
2018-05-21T01:16:13.712Z,0
2018-05-21T01:17:23.715Z,0
2018-05-21T01:18:33.682Z,0
2018-05-21T01:19:43.414Z,0
2018-05-21T01:20:53.389Z,0
2018-05-21T01:22:03.364Z,0
2018-05-21T01:23:13.355Z,0
2018-05-21T01:24:22.803Z,0
2018-05-21T01:25:32.512Z,0
2018-05-21T01:26:42.489Z,0
2018-05-21T01:27:52.470Z,0
2018-05-21T01:29:02.452Z,0
2018-05-21T01:30:12.430Z,0
2018-05-21T01:31:21.876Z,0
2018-05-21T01:32:31.334Z,0
2018-05-21T01:33:41.310Z,0
2018-05-21T01:34:51.284Z,0
2018-05-21T01:36:01.271Z,0
2018-05-21T01:37:10.991Z,0
2018-05-21T01:38:20.958Z,0
2018-05-21T01:39:30.680Z,0
2018-05-21T01:40:40.661Z,0
2018-05-21T01:41:50.376Z,0
2018-05-21T01:43:00.359Z,0
2018-05-21T01:44:10.332Z,0
2018-05-21T01:45:20.303Z,0
2018-05-21T01:46:29.744Z,0
2018-05-21T01:47:39.714Z,0
2018-05-21T01:48:49.434Z,0
2018-05-21T01:49:59.405Z,0
2018-05-21T01:51:09.369Z,0
2018-05-21T01:52:18.818Z,0
2018-05-21T01:53:28.785Z,0
2018-05-21T01:54:38.765Z,0
2018-05-21T01:55:48.759Z,0
2018-05-21T01:56:58.725Z,0
2018-05-21T01:58:08.703Z,0
2018-05-21T01:59:18.684Z,0
2018-05-21T02:00:28.653Z,0
2018-05-21T02:01:38.630Z,0
2018-05-21T02:02:48.594Z,0
2018-05-21T02:03:58.062Z,0
2018-05-21T02:05:08.027Z,0
2018-05-21T02:06:17.816Z,0
2018-05-21T02:07:27.784Z,0
2018-05-21T02:08:37.967Z,0
2018-05-21T02:09:48.223Z,0
2018-05-21T02:10:58.184Z,0
2018-05-21T02:12:07.896Z,0
2018-05-21T02:13:17.635Z,0
2018-05-21T02:14:27.604Z,0
2018-05-21T02:15:37.323Z,0
2018-05-21T02:16:47.034Z,0
2018-05-21T02:17:56.995Z,0
2018-05-21T02:19:06.708Z,0
2018-05-21T02:20:16.588Z,0
2018-05-21T02:21:26.317Z,4
2018-05-21T02:22:36.288Z,4
2018-05-21T02:23:46.024Z,4
2018-05-21T02:24:55.736Z,4
2018-05-21T02:26:05.707Z,4
2018-05-21T02:27:15.891Z,4
2018-05-21T02:28:25.605Z,8
2018-05-21T02:29:35.329Z,8
2018-05-21T02:30:45.060Z,8
2018-05-21T02:31:54.779Z,8
2018-05-21T02:33:03.961Z,12
2018-05-21T02:34:13.672Z,16
2018-05-21T02:35:23.737Z,16
2018-05-21T02:36:33.452Z,20
2018-05-21T02:37:43.430Z,20
2018-05-21T02:38:53.373Z,28
2018-05-21T02:40:03.355Z,32
2018-05-21T02:41:13.334Z,36
2018-05-21T02:42:23.064Z,40
2018-05-21T02:43:32.783Z,52
2018-05-21T02:44:42.755Z,56
2018-05-21T02:45:52.724Z,68
2018-05-21T02:47:02.698Z,76
2018-05-21T02:48:12.671Z,88
2018-05-21T02:49:22.634Z,104
2018-05-21T02:50:32.592Z,120
2018-05-21T02:51:42.302Z,136
2018-05-21T02:52:52.030Z,156
2018-05-21T02:54:02.000Z,176
2018-05-21T02:55:11.980Z,192
2018-05-21T02:56:21.957Z,220
2018-05-21T02:57:31.916Z,244
2018-05-21T02:58:41.878Z,276
2018-05-21T02:59:51.322Z,304
2018-05-21T03:01:01.343Z,340
2018-05-21T03:02:11.317Z,376
2018-05-21T03:03:21.276Z,420
2018-05-21T03:04:31.248Z,460
2018-05-21T03:05:41.223Z,512
2018-05-21T03:06:51.180Z,556
2018-05-21T03:08:00.894Z,608
2018-05-21T03:09:10.879Z,664
2018-05-21T03:10:20.851Z,720
2018-05-21T03:11:30.855Z,780
2018-05-21T03:12:40.808Z,848
2018-05-21T03:13:50.781Z,912
2018-05-21T03:15:00.492Z,980
2018-05-21T03:16:10.475Z,1048
2018-05-21T03:17:20.450Z,1128
2018-05-21T03:18:30.425Z,1240
2018-05-21T03:19:40.394Z,1348
2018-05-21T03:20:50.098Z,1384
2018-05-21T03:21:59.543Z,1444
2018-05-21T03:23:09.531Z,1564
2018-05-21T03:24:19.231Z,1652
2018-05-21T03:25:29.189Z,1720
2018-05-21T03:26:39.163Z,1816
2018-05-21T03:27:49.139Z,1904
2018-05-21T03:28:58.875Z,1996
2018-05-21T03:30:08.603Z,2088
2018-05-21T03:31:18.587Z,2176
2018-05-21T03:32:28.555Z,2268
2018-05-21T03:33:38.531Z,2360
2018-05-21T03:34:48.564Z,2448
2018-05-21T03:35:58.528Z,2532
2018-05-21T03:37:08.493Z,2616
2018-05-21T03:38:18.473Z,2708
2018-05-21T03:39:28.216Z,2804
2018-05-21T03:40:38.210Z,2904
2018-05-21T03:41:47.930Z,2988
2018-05-21T03:42:57.891Z,3080
2018-05-21T03:44:07.889Z,3168
2018-05-21T03:45:17.861Z,3256
2018-05-21T03:46:27.566Z,3344
2018-05-21T03:47:37.554Z,3432
2018-05-21T03:48:47.543Z,3512
2018-05-21T03:49:56.756Z,3584
2018-05-21T03:51:06.726Z,3660
2018-05-21T03:52:16.690Z,3752
2018-05-21T03:53:26.650Z,3860
2018-05-21T03:54:36.377Z,3956
2018-05-21T03:55:46.355Z,4044
2018-05-21T03:56:56.526Z,4136
2018-05-21T03:58:06.352Z,4216
2018-05-21T03:59:16.326Z,4296
2018-05-21T04:00:26.307Z,4372
2018-05-21T04:01:36.281Z,4440
2018-05-21T04:02:46.249Z,4508
2018-05-21T04:03:55.962Z,4572
2018-05-21T04:05:05.675Z,4640
2018-05-21T04:06:15.645Z,4708
2018-05-21T04:07:25.635Z,4768
2018-05-21T04:08:35.606Z,4832
2018-05-21T04:09:45.063Z,4892
2018-05-21T04:10:55.041Z,4952
2018-05-21T04:12:05.248Z,5012
2018-05-21T04:13:15.215Z,5072
2018-05-21T04:14:25.187Z,5124
2018-05-21T04:15:34.910Z,5180
2018-05-21T04:16:44.870Z,5236
2018-05-21T04:17:54.840Z,5296
2018-05-21T04:19:04.637Z,5348
2018-05-21T04:20:14.604Z,5404
2018-05-21T04:21:24.320Z,5456
2018-05-21T04:22:34.034Z,5504
2018-05-21T04:23:44.002Z,5560
2018-05-21T04:24:53.711Z,5604
2018-05-21T04:26:03.672Z,5652
2018-05-21T04:27:13.383Z,5700
2018-05-21T04:28:23.098Z,5752
2018-05-21T04:29:33.069Z,5796
2018-05-21T04:30:43.048Z,5844
2018-05-21T04:31:52.503Z,5888
2018-05-21T04:33:02.479Z,5932
2018-05-21T04:34:12.461Z,5980
2018-05-21T04:35:22.162Z,6020
2018-05-21T04:36:32.438Z,6064
2018-05-21T04:37:41.914Z,6108
2018-05-21T04:38:51.629Z,6148
2018-05-21T04:40:01.344Z,6192
2018-05-21T04:41:11.337Z,6232
2018-05-21T04:42:21.062Z,6272
2018-05-21T04:43:31.031Z,6316
2018-05-21T04:44:41.067Z,6360
2018-05-21T04:45:50.778Z,6400
2018-05-21T04:47:00.504Z,6440
2018-05-21T04:48:10.492Z,6480
2018-05-21T04:49:20.201Z,6520
2018-05-21T04:50:30.172Z,6560
2018-05-21T04:51:40.149Z,6592
2018-05-21T04:52:50.119Z,6628
2018-05-21T04:54:00.092Z,6660
2018-05-21T04:55:10.059Z,6688
2018-05-21T04:56:20.022Z,6724
2018-05-21T04:57:29.732Z,6760
2018-05-21T04:58:39.702Z,6796
2018-05-21T04:59:49.675Z,6832
2018-05-21T05:00:59.402Z,6860
2018-05-21T05:02:09.395Z,6892
2018-05-21T05:03:19.351Z,6920
2018-05-21T05:04:29.066Z,6940
2018-05-21T05:05:39.032Z,6976
2018-05-21T05:06:48.826Z,7008
2018-05-21T05:07:58.796Z,7036
2018-05-21T05:09:08.768Z,7064
2018-05-21T05:10:18.829Z,7092
2018-05-21T05:11:28.797Z,7116
2018-05-21T05:12:38.250Z,7140
2018-05-21T05:13:47.958Z,7168
2018-05-21T05:14:57.660Z,7200
2018-05-21T05:16:07.639Z,7236
2018-05-21T05:17:17.610Z,7264
2018-05-21T05:18:26.804Z,7296
2018-05-21T05:19:36.814Z,7328
2018-05-21T05:20:46.781Z,7356
2018-05-21T05:21:56.749Z,7380
2018-05-21T05:23:06.718Z,7404
2018-05-21T05:24:16.698Z,7432
2018-05-21T05:25:26.666Z,7456
2018-05-21T05:26:36.838Z,7480
2018-05-21T05:27:46.393Z,7496
2018-05-21T05:28:56.358Z,7524
2018-05-21T05:30:06.078Z,7544
2018-05-21T05:31:16.030Z,7568
2018-05-21T05:32:25.757Z,7592
2018-05-21T05:33:35.466Z,7628
2018-05-21T05:34:45.452Z,7664
2018-05-21T05:35:55.245Z,7696
2018-05-21T05:37:05.284Z,7732
2018-05-21T05:38:14.986Z,7768
2018-05-21T05:39:24.959Z,7812
2018-05-21T05:40:34.929Z,7848
2018-05-21T05:41:44.665Z,7880
2018-05-21T05:42:54.633Z,7904
2018-05-21T05:44:04.616Z,7928
2018-05-21T05:45:14.331Z,7948
2018-05-21T05:46:24.154Z,7968
2018-05-21T05:47:34.122Z,7992
2018-05-21T05:48:44.207Z,8016
2018-05-21T05:49:54.257Z,8036
2018-05-21T05:51:04.234Z,8060
2018-05-21T05:52:14.213Z,8080
2018-05-21T05:53:23.925Z,8104
2018-05-21T05:54:33.896Z,8124
2018-05-21T05:55:43.867Z,8148
2018-05-21T05:56:53.828Z,8164
2018-05-21T05:58:03.811Z,8176
2018-05-21T05:59:13.808Z,8204
2018-05-21T06:00:23.786Z,8216
2018-05-21T06:01:33.753Z,8228
2018-05-21T06:02:43.739Z,8244
2018-05-21T06:03:53.717Z,8260
2018-05-21T06:05:03.714Z,8276
2018-05-21T06:06:13.705Z,8300
2018-05-21T06:07:23.700Z,8316
2018-05-21T06:08:33.407Z,8336
2018-05-21T06:09:43.116Z,8344
2018-05-21T06:10:53.097Z,8364
2018-05-21T06:12:02.824Z,8376
2018-05-21T06:13:12.813Z,8392
2018-05-21T06:14:22.524Z,8408
2018-05-21T06:15:32.237Z,8428
2018-05-21T06:16:41.958Z,8456
2018-05-21T06:17:51.940Z,8508
2018-05-21T06:19:01.401Z,8588
2018-05-21T06:20:11.399Z,8648
2018-05-21T06:21:21.379Z,8704
2018-05-21T06:22:31.369Z,8756
2018-05-21T06:23:41.097Z,8804
2018-05-21T06:24:51.075Z,8852
2018-05-21T06:26:01.189Z,8904
2018-05-21T06:27:11.188Z,8960
2018-05-21T06:28:21.161Z,8984
2018-05-21T06:29:31.140Z,9036
2018-05-21T06:30:41.140Z,9080
2018-05-21T06:31:51.104Z,9120
2018-05-21T06:33:01.075Z,9160
2018-05-21T06:34:11.675Z,9208
2018-05-21T06:35:21.884Z,9252
2018-05-21T06:36:31.842Z,9288
2018-05-21T06:37:41.565Z,9308
2018-05-21T06:38:51.541Z,9332
2018-05-21T06:40:01.265Z,9352
2018-05-21T06:41:11.460Z,9372
2018-05-21T06:42:21.172Z,9392
2018-05-21T06:43:31.160Z,9408
2018-05-21T06:44:41.140Z,9432
2018-05-21T06:45:51.317Z,9436
2018-05-21T06:47:01.352Z,9464
2018-05-21T06:48:11.333Z,9484
2018-05-21T06:49:21.310Z,9496
2018-05-21T06:50:31.289Z,9516
2018-05-21T06:51:41.265Z,9540
2018-05-21T06:52:50.713Z,9552
2018-05-21T06:54:00.161Z,9568
2018-05-21T06:55:10.195Z,9592
2018-05-21T06:56:19.646Z,9620
2018-05-21T06:57:29.104Z,9648
2018-05-21T06:58:38.796Z,9680
2018-05-21T06:59:48.967Z,9712
2018-05-21T07:00:58.912Z,9736
2018-05-21T07:02:08.635Z,9756
2018-05-21T07:03:18.381Z,9784
2018-05-21T07:04:28.092Z,9816
2018-05-21T07:05:38.060Z,9832
2018-05-21T07:06:48.032Z,9860
2018-05-21T07:07:58.043Z,9884
2018-05-21T07:09:08.097Z,9908
2018-05-21T07:10:18.068Z,9924
2018-05-21T07:11:27.795Z,9944
2018-05-21T07:12:37.771Z,9976
2018-05-21T07:13:47.771Z,10000
2018-05-21T07:14:57.232Z,10024
2018-05-21T07:16:07.043Z,10044
2018-05-21T07:17:17.031Z,10064
2018-05-21T07:18:27.138Z,10084
2018-05-21T07:19:37.107Z,10116
2018-05-21T07:20:47.112Z,10148
2018-05-21T07:21:56.826Z,10180
2018-05-21T07:23:06.295Z,10212
2018-05-21T07:24:16.276Z,10232
2018-05-21T07:25:26.343Z,10264
2018-05-21T07:26:36.061Z,10304
2018-05-21T07:27:46.032Z,10340
2018-05-21T07:28:55.999Z,10364
2018-05-21T07:30:05.718Z,10388
2018-05-21T07:31:15.705Z,10416
2018-05-21T07:32:25.694Z,10448
2018-05-21T07:33:35.566Z,10476
2018-05-21T07:34:45.541Z,10508
2018-05-21T07:35:55.631Z,10536
2018-05-21T07:37:04.579Z,10572
2018-05-21T07:38:14.302Z,10596
2018-05-21T07:39:24.027Z,10624
2018-05-21T07:40:33.767Z,10652
2018-05-21T07:41:43.484Z,10700
2018-05-21T07:42:53.463Z,10728
2018-05-21T07:44:03.424Z,10780
2018-05-21T07:45:12.875Z,10812
2018-05-21T07:46:22.328Z,10852
2018-05-21T07:47:32.302Z,10892
2018-05-21T07:48:42.011Z,10936
2018-05-21T07:49:52.027Z,10980
2018-05-21T07:51:02.012Z,11028
2018-05-21T07:52:11.980Z,11080
2018-05-21T07:53:21.951Z,11132
2018-05-21T07:54:31.957Z,11188
2018-05-21T07:55:41.660Z,11252
2018-05-21T07:56:51.375Z,11308
2018-05-21T07:58:01.360Z,11360
2018-05-21T07:59:11.361Z,11408
2018-05-21T08:00:21.091Z,11448
2018-05-21T08:01:31.071Z,11516
2018-05-21T08:02:41.048Z,11588
2018-05-21T08:03:51.015Z,11640
2018-05-21T08:05:01.115Z,11688
2018-05-21T08:06:11.091Z,11712
2018-05-21T08:07:21.064Z,11764
2018-05-21T08:08:31.042Z,11788
2018-05-21T08:09:41.033Z,11784
2018-05-21T08:10:51.004Z,11864
2018-05-21T08:12:01.049Z,11904
2018-05-21T08:13:10.862Z,11940
2018-05-21T08:14:20.603Z,11984
2018-05-21T08:15:30.581Z,12020
2018-05-21T08:16:40.041Z,12064
2018-05-21T08:17:49.523Z,12096
2018-05-21T08:18:59.511Z,12144
2018-05-21T08:20:09.226Z,12200
2018-05-21T08:21:19.209Z,12264
2018-05-21T08:22:28.935Z,12320
2018-05-21T08:23:38.654Z,12392
2018-05-21T08:24:48.366Z,12460
2018-05-21T08:25:58.091Z,12560
2018-05-21T08:27:08.108Z,21120
2018-05-21T08:28:18.130Z,42720
2018-05-21T08:29:28.222Z,47136
2018-05-21T08:30:37.948Z,48768
2018-05-21T08:31:47.944Z,49952
2018-05-21T08:32:58.090Z,49056
2018-05-21T08:34:08.079Z,48608
2018-05-21T08:35:17.794Z,49120
2018-05-21T08:36:27.518Z,50464
2018-05-21T08:37:37.515Z,52512
2018-05-21T08:38:47.504Z,53408
2018-05-21T08:39:57.501Z,51520
2018-05-21T08:41:07.220Z,50496
2018-05-21T08:42:17.223Z,51968
2018-05-21T08:43:26.697Z,54176
2018-05-21T08:44:36.674Z,54400
2018-05-21T08:45:46.191Z,54816
2018-05-21T08:46:55.592Z,55712
2018-05-21T08:48:05.581Z,55264
2018-05-21T08:49:15.326Z,56832
2018-05-21T08:50:25.345Z,48800
2018-05-21T08:51:35.074Z,57728
2018-05-21T08:52:44.809Z,57280
2018-05-21T08:53:54.811Z,56064
2018-05-21T08:55:04.894Z,57856
2018-05-21T08:56:14.983Z,58272
2018-05-21T08:57:24.973Z,59680
2018-05-21T08:58:34.976Z,60544
2018-05-21T08:59:45.059Z,60288
2018-05-21T09:00:54.792Z,62144
2018-05-21T09:02:04.615Z,64192
2018-05-21T09:03:14.340Z,62944
2018-05-21T09:04:24.340Z,63104
2018-05-21T09:05:34.319Z,64736
2018-05-21T09:06:44.062Z,62848
2018-05-21T09:07:54.071Z,65056
2018-05-21T09:09:03.800Z,64256
2018-05-21T09:10:14.270Z,64192
2018-05-21T09:11:24.271Z,64480
2018-05-21T09:12:34.539Z,68096
2018-05-21T09:13:44.537Z,72384
2018-05-21T09:14:54.511Z,68640
2018-05-21T09:16:04.237Z,70816
2018-05-21T09:17:13.980Z,70624
2018-05-21T09:18:23.968Z,57760
2018-05-21T09:19:33.973Z,65216
2018-05-21T09:20:43.962Z,69920
2018-05-21T09:21:53.956Z,70976
2018-05-21T09:23:03.946Z,74496
2018-05-21T09:24:13.940Z,78272
2018-05-21T09:25:23.936Z,24480
2018-05-21T09:26:33.411Z,81984
2018-05-21T09:27:43.407Z,81216
2018-05-21T09:28:53.402Z,81792
2018-05-21T09:30:03.384Z,82720
2018-05-21T09:31:13.380Z,82240
2018-05-21T09:32:23.170Z,84512
2018-05-21T09:33:32.915Z,82464
2018-05-21T09:34:42.122Z,82880
2018-05-21T09:35:51.843Z,83584
2018-05-21T09:37:01.324Z,83808
2018-05-21T09:38:11.048Z,36768
2018-05-21T09:39:20.795Z,49312
2018-05-21T09:40:30.783Z,86592
2018-05-21T09:41:40.503Z,88192
2018-05-21T09:42:50.233Z,51360
2018-05-21T09:44:00.223Z,92576
2018-05-21T09:45:10.211Z,71616
2018-05-21T09:46:20.216Z,88800
2018-05-21T09:47:30.209Z,89472
2018-05-21T09:48:40.358Z,90848
2018-05-21T09:49:50.455Z,88608
2018-05-21T09:51:00.453Z,89600
2018-05-21T09:52:09.932Z,88928
2018-05-21T09:53:19.407Z,86784
2018-05-21T09:54:29.391Z,90976
2018-05-21T09:55:39.390Z,92928
2018-05-21T09:56:49.383Z,90688
2018-05-21T09:57:59.397Z,84800
2018-05-21T09:59:09.139Z,95584
2018-05-21T10:00:19.137Z,95488
2018-05-21T10:01:29.217Z,93088
2018-05-21T10:02:38.960Z,96288
2018-05-21T10:03:48.690Z,97760
2018-05-21T10:04:58.426Z,98016
2018-05-21T10:06:08.430Z,101024
2018-05-21T10:07:18.166Z,101760
2018-05-21T10:08:27.911Z,100480
2018-05-21T10:09:37.913Z,99232
2018-05-21T10:10:47.982Z,102240
2018-05-21T10:11:57.990Z,100608
2018-05-21T10:13:08.056Z,99232
2018-05-21T10:14:17.790Z,100384
2018-05-21T10:15:27.516Z,106048
2018-05-21T10:16:37.502Z,68352
2018-05-21T10:17:47.249Z,103040
2018-05-21T10:18:57.240Z,97408
2018-05-21T10:20:07.223Z,103168
2018-05-21T10:21:17.229Z,109344
2018-05-21T10:22:27.070Z,99232
2018-05-21T10:23:37.153Z,108032
2018-05-21T10:24:46.898Z,100544
2018-05-21T10:25:56.984Z,103584
2018-05-21T10:27:06.786Z,104288
2018-05-21T10:28:16.535Z,105184
2018-05-21T10:29:26.547Z,109472
2018-05-21T10:30:36.289Z,111296
2018-05-21T10:31:45.767Z,108224
2018-05-21T10:32:55.762Z,104128
2018-05-21T10:34:04.965Z,109312
2018-05-21T10:35:14.985Z,111584
2018-05-21T10:36:24.975Z,106528
2018-05-21T10:37:34.975Z,92896
2018-05-21T10:38:44.186Z,117216
2018-05-21T10:39:53.932Z,114272
2018-05-21T10:41:03.404Z,29280
2018-05-21T10:42:13.384Z,119872
2018-05-21T10:43:23.112Z,116384
2018-05-21T10:44:33.225Z,119232
2018-05-21T10:45:43.289Z,112416
2018-05-21T10:46:53.364Z,114528
2018-05-21T10:48:03.142Z,120736
2018-05-21T10:49:12.910Z,110528
2018-05-21T10:50:22.642Z,110144
2018-05-21T10:51:33.077Z,116416
2018-05-21T10:52:42.812Z,114624
2018-05-21T10:53:52.833Z,120352
2018-05-21T10:55:02.559Z,123360
2018-05-21T10:56:12.794Z,31552
2018-05-21T10:57:22.593Z,33536
2018-05-21T10:58:32.595Z,129536
2018-05-21T10:59:42.581Z,124128
2018-05-21T11:00:52.859Z,114752
2018-05-21T11:02:03.297Z,116096
2018-05-21T11:03:13.073Z,111264
2018-05-21T11:04:22.844Z,121184
2018-05-21T11:05:32.860Z,115456
2018-05-21T11:06:42.364Z,115104
2018-05-21T11:07:52.414Z,30688
2018-05-21T11:09:02.152Z,30880
2018-05-21T11:10:12.164Z,31872
2018-05-21T11:11:21.904Z,130816
2018-05-21T11:12:31.653Z,73088
2018-05-21T11:13:41.667Z,128608
2018-05-21T11:14:51.664Z,122464
2018-05-21T11:16:01.665Z,100064
2018-05-21T11:17:11.416Z,105632
2018-05-21T11:18:21.413Z,122240
2018-05-21T11:19:31.404Z,126112
2018-05-21T11:20:41.428Z,107552
2018-05-21T11:21:51.422Z,121216
2018-05-21T11:23:01.446Z,108640
2018-05-21T11:24:11.443Z,86976
2018-05-21T11:25:21.444Z,117632
2018-05-21T11:26:31.444Z,104864
2018-05-21T11:27:41.443Z,121184
2018-05-21T11:28:51.430Z,120960
2018-05-21T11:30:01.415Z,112544
2018-05-21T11:31:11.169Z,119616
2018-05-21T11:32:20.908Z,126976
2018-05-21T11:33:30.644Z,130080
2018-05-21T11:34:40.651Z,119840
2018-05-21T11:35:50.654Z,130880
2018-05-21T11:37:00.649Z,122912
2018-05-21T11:38:10.643Z,122624
2018-05-21T11:39:20.636Z,109152
2018-05-21T11:40:30.637Z,43136
2018-05-21T11:41:40.654Z,45696
2018-05-21T11:42:50.668Z,130944
2018-05-21T11:44:00.396Z,131424
2018-05-21T11:45:10.133Z,105312
2018-05-21T11:46:19.948Z,132768
2018-05-21T11:47:29.981Z,119808
2018-05-21T11:48:40.063Z,110752
2018-05-21T11:49:49.800Z,90272
2018-05-21T11:50:59.799Z,98368
2018-05-21T11:52:10.035Z,124320
2018-05-21T11:53:20.040Z,63328
2018-05-21T11:54:29.765Z,141312
2018-05-21T11:55:39.248Z,144512
2018-05-21T11:56:49.227Z,101440
2018-05-21T11:57:58.984Z,125824
2018-05-21T11:59:08.742Z,125344
2018-05-21T12:00:18.739Z,122336
2018-05-21T12:01:28.734Z,128800
2018-05-21T12:02:38.634Z,127488
2018-05-21T12:03:48.514Z,127232
2018-05-21T12:04:58.500Z,115360
2018-05-21T12:06:08.234Z,136096
2018-05-21T12:07:17.727Z,115040
2018-05-21T12:08:27.719Z,99584
2018-05-21T12:09:37.700Z,95840
2018-05-21T12:10:47.688Z,122528
2018-05-21T12:11:57.422Z,111872
2018-05-21T12:13:07.499Z,117088
2018-05-21T12:14:17.491Z,118976
2018-05-21T12:15:27.222Z,109504
2018-05-21T12:16:37.210Z,97472
2018-05-21T12:17:46.941Z,105376
2018-05-21T12:18:56.923Z,137344
2018-05-21T12:20:06.913Z,121888
2018-05-21T12:21:16.915Z,99904
2018-05-21T12:22:27.158Z,80960
2018-05-21T12:23:37.088Z,69632
2018-05-21T12:24:47.076Z,65280
2018-05-21T12:25:57.072Z,50624
2018-05-21T12:27:06.815Z,53920
2018-05-21T12:28:16.801Z,80864
2018-05-21T12:29:26.796Z,110432
2018-05-21T12:30:36.277Z,139616
2018-05-21T12:31:46.029Z,150944
2018-05-21T12:32:56.030Z,159360
2018-05-21T12:34:06.041Z,158720
2018-05-21T12:35:15.765Z,95488
2018-05-21T12:36:25.513Z,152736
2018-05-21T12:37:34.994Z,136576
2018-05-21T12:38:44.714Z,140096
2018-05-21T12:39:54.702Z,137184
2018-05-21T12:41:04.693Z,119840
2018-05-21T12:42:14.677Z,81024
2018-05-21T12:43:24.679Z,93760
2018-05-21T12:44:34.669Z,114688
2018-05-21T12:45:44.673Z,145856
2018-05-21T12:46:54.993Z,149920
2018-05-21T12:48:05.012Z,122464
2018-05-21T12:49:15.006Z,131296
2018-05-21T12:50:25.107Z,121056
2018-05-21T12:51:35.088Z,78400
2018-05-21T12:52:45.078Z,70144
2018-05-21T12:53:54.817Z,41696
2018-05-21T12:55:04.831Z,91360
2018-05-21T12:56:14.823Z,114400
2018-05-21T12:57:24.815Z,120000
2018-05-21T12:58:34.810Z,116448
2018-05-21T12:59:44.809Z,111104
2018-05-21T13:00:54.806Z,102432
2018-05-21T13:02:04.952Z,95616
2018-05-21T13:03:14.954Z,104096
2018-05-21T13:04:24.676Z,61888
2018-05-21T13:05:34.749Z,89088
2018-05-21T13:06:44.743Z,84224
2018-05-21T13:07:54.732Z,73344
2018-05-21T13:09:04.707Z,103712
2018-05-21T13:10:14.719Z,113760
2018-05-21T13:11:24.722Z,131200
2018-05-21T13:12:34.708Z,93280
2018-05-21T13:13:44.708Z,109536
2018-05-21T13:14:54.434Z,120768
2018-05-21T13:16:04.416Z,127136
2018-05-21T13:17:14.410Z,130656
2018-05-21T13:18:24.415Z,131328
2018-05-21T13:19:34.424Z,128224
2018-05-21T13:20:44.143Z,127392
2018-05-21T13:21:54.153Z,138240
2018-05-21T13:23:04.170Z,137792
2018-05-21T13:24:14.902Z,132352
2018-05-21T13:25:25.063Z,125728
2018-05-21T13:26:35.058Z,130368
2018-05-21T13:27:45.054Z,95776
2018-05-21T13:28:54.787Z,70528
2018-05-21T13:30:04.268Z,77536
2018-05-21T13:31:14.271Z,89056
2018-05-21T13:32:23.990Z,94624
2018-05-21T13:33:34.007Z,100224
2018-05-21T13:34:44.036Z,129984
2018-05-21T13:35:53.785Z,129408
2018-05-21T13:37:03.771Z,129504
2018-05-21T13:38:13.497Z,123168
2018-05-21T13:39:23.512Z,123232
2018-05-21T13:40:33.242Z,117024
2018-05-21T13:41:43.248Z,125760
2018-05-21T13:42:53.232Z,125664
2018-05-21T13:44:03.239Z,123424
2018-05-21T13:45:12.976Z,127744
2018-05-21T13:46:22.977Z,127616
2018-05-21T13:47:32.956Z,88320
2018-05-21T13:48:42.713Z,114464
2018-05-21T13:49:52.429Z,118176
2018-05-21T13:51:02.156Z,136832
2018-05-21T13:52:12.353Z,139328
2018-05-21T13:53:22.371Z,132864
2018-05-21T13:54:32.370Z,131008
2018-05-21T13:55:42.096Z,104608
2018-05-21T13:56:52.105Z,80544
2018-05-21T13:58:01.844Z,81184
2018-05-21T13:59:11.821Z,69472
2018-05-21T14:00:21.813Z,51104
2018-05-21T14:01:31.810Z,37984
2018-05-21T14:02:41.796Z,42816
2018-05-21T14:03:51.791Z,89472
2018-05-21T14:05:01.795Z,36864
2018-05-21T14:06:11.802Z,48928
2018-05-21T14:07:21.798Z,81600
2018-05-21T14:08:31.532Z,96480
2018-05-21T14:09:41.527Z,75904
2018-05-21T14:10:51.515Z,81664
2018-05-21T14:12:00.975Z,102272
2018-05-21T14:13:10.979Z,128320
2018-05-21T14:14:20.983Z,70208
2018-05-21T14:15:30.975Z,71712
2018-05-21T14:16:40.724Z,126912
2018-05-21T14:17:50.744Z,127904
2018-05-21T14:19:00.734Z,122240
2018-05-21T14:20:10.713Z,124672
2018-05-21T14:21:20.437Z,128224
2018-05-21T14:22:30.423Z,129504
2018-05-21T14:23:40.410Z,73024
2018-05-21T14:24:50.404Z,98784
2018-05-21T14:26:00.405Z,30752
2018-05-21T14:27:10.404Z,47392
2018-05-21T14:28:20.133Z,61088
2018-05-21T14:29:30.356Z,30304
2018-05-21T14:30:40.469Z,70464
2018-05-21T14:31:50.462Z,77632
2018-05-21T14:33:00.443Z,73568
2018-05-21T14:34:10.422Z,130464
2018-05-21T14:35:20.153Z,128800
2018-05-21T14:36:29.897Z,108800
2018-05-21T14:37:39.900Z,29312
2018-05-21T14:38:49.905Z,26912
2018-05-21T14:39:59.620Z,28384
2018-05-21T14:41:09.383Z,51904
2018-05-21T14:42:19.132Z,113440
2018-05-21T14:43:29.120Z,124000
2018-05-21T14:44:39.133Z,69056
2018-05-21T14:45:49.125Z,34240
2018-05-21T14:46:59.125Z,116096
2018-05-21T14:48:09.146Z,31200
2018-05-21T14:49:19.125Z,61024
2018-05-21T14:50:29.114Z,26528
2018-05-21T14:51:39.094Z,32320
2018-05-21T14:52:49.096Z,27904
2018-05-21T14:53:59.085Z,27776
2018-05-21T14:55:09.485Z,23072
2018-05-21T14:56:19.491Z,22912
2018-05-21T14:57:29.471Z,109280
2018-05-21T14:58:39.485Z,109088
2018-05-21T14:59:49.492Z,111936
2018-05-21T15:00:59.502Z,108512
2018-05-21T15:02:09.424Z,105280
2018-05-21T15:03:19.722Z,106336
2018-05-21T15:04:29.448Z,30592
2018-05-21T15:05:39.502Z,109152
2018-05-21T15:06:49.483Z,107072
2018-05-21T15:07:58.691Z,102752
2018-05-21T15:09:08.687Z,31648
2018-05-21T15:10:18.695Z,27584
2018-05-21T15:11:28.684Z,28128
2018-05-21T15:12:38.672Z,30176
2018-05-21T15:13:48.660Z,100832
2018-05-21T15:14:58.659Z,106016
2018-05-21T15:16:08.758Z,107648
2018-05-21T15:17:18.672Z,41536
2018-05-21T15:18:28.669Z,33728
2018-05-21T15:19:38.134Z,27520
2018-05-21T15:20:48.120Z,27040
2018-05-21T15:21:58.116Z,95904
2018-05-21T15:23:08.136Z,45824
2018-05-21T15:24:18.129Z,103968